Time;durP1;ratioP1;P1;durP2;ratioP2;P2;SDS_P1;SDS_P2;PMS_P1;PMS_P2;Temp;Humidity;BMP_temperature;BMP_pressure;BME280_temperature;BME280_humidity;BME280_pressure;Samples;Min_cycle;Max_cycle;Signal;HPM_P1;HPM_P2
2023/06/22 00:00:52;;;;;;;7.93;4.43;;;;;;;;;;5024649;28;20022;-71
2023/06/22 00:03:19;;;;;;;7.40;4.75;;;;;;;;;;5024500;28;20581;-71
2023/06/22 00:05:45;;;;;;;8.50;4.60;;;;;;;;;;5023125;28;20404;-71
2023/06/22 00:08:11;;;;;;;7.25;4.50;;;;;;;;;;5024449;28;20037;-70
2023/06/22 00:10:37;;;;;;;10.40;4.95;;;;;;;;;;5023610;28;20069;-71
2023/06/22 00:13:03;;;;;;;10.95;4.85;;;;;;;;;;5024153;28;20564;-71
2023/06/22 00:15:29;;;;;;;7.93;4.25;;;;;;;;;;5024265;28;20039;-71
2023/06/22 00:17:54;;;;;;;7.60;4.47;;;;;;;;;;5024003;28;20034;-70
2023/06/22 00:20:19;;;;;;;7.00;4.65;;;;;;;;;;5023959;28;20503;-71
2023/06/22 00:22:45;;;;;;;8.23;4.32;;;;;;;;;;5023938;28;20466;-71
2023/06/22 00:25:11;;;;;;;9.80;4.68;;;;;;;;;;5023669;28;20193;-71
2023/06/22 00:27:36;;;;;;;6.93;4.35;;;;;;;;;;5024524;28;20025;-71
2023/06/22 00:30:03;;;;;;;9.30;4.60;;;;;;;;;;5023510;28;20506;-71
2023/06/22 00:32:28;;;;;;;8.40;4.78;;;;;;;;;;5023798;28;20056;-71
2023/06/22 00:34:54;;;;;;;11.75;4.45;;;;;;;;;;5024013;28;20038;-71
2023/06/22 00:37:19;;;;;;;7.68;4.70;;;;;;;;;;5021027;28;20449;-70
2023/06/22 00:39:44;;;;;;;7.60;4.90;;;;;;;;;;5024386;28;20079;-71
2023/06/22 00:42:10;;;;;;;9.95;4.55;;;;;;;;;;5023787;28;20423;-70
2023/06/22 00:44:36;;;;;;;10.48;5.15;;;;;;;;;;5023567;28;20076;-70
2023/06/22 00:47:02;;;;;;;9.52;5.05;;;;;;;;;;5022536;28;20080;-70
2023/06/22 00:49:28;;;;;;;7.38;4.43;;;;;;;;;;5023709;28;20099;-70
2023/06/22 00:51:54;;;;;;;9.98;5.07;;;;;;;;;;5024397;28;20021;-70
2023/06/22 00:54:24;;;;;;;8.88;4.80;;;;;;;;;;5012405;28;20111;-70
2023/06/22 00:56:53;;;;;;;10.55;5.40;;;;;;;;;;5025421;28;20097;-70
2023/06/22 00:59:20;;;;;;;6.70;4.63;;;;;;;;;;5030274;28;20092;-70
2023/06/22 01:01:45;;;;;;;9.15;5.00;;;;;;;;;;5037081;28;20400;-71
2023/06/22 01:04:11;;;;;;;8.35;5.07;;;;;;;;;;5028545;28;20041;-71
2023/06/22 01:06:42;;;;;;;8.35;5.15;;;;;;;;;;5025240;28;20064;-71
2023/06/22 01:09:19;;;;;;;11.75;5.03;;;;;;;;;;5023952;28;20384;-70
2023/06/22 01:11:48;;;;;;;10.88;5.53;;;;;;;;;;5024314;28;20037;-71
2023/06/22 01:14:24;;;;;;;8.95;4.95;;;;;;;;;;5026292;28;20033;-70
2023/06/22 01:16:51;;;;;;;9.32;4.93;;;;;;;;;;5025002;28;20036;-70
2023/06/22 01:19:43;;;;;;;11.43;4.38;;;;;;;;;;5019419;28;20018;-71
2023/06/22 01:22:12;;;;;;;11.25;5.35;;;;;;;;;;5024776;28;20018;-70
2023/06/22 01:25:03;;;;;;;8.02;4.55;;;;;;;;;;5027372;28;20021;-70
2023/06/22 01:27:41;;;;;;;11.45;5.20;;;;;;;;;;5025353;28;20053;-71
2023/06/22 01:30:10;;;;;;;8.25;4.97;;;;;;;;;;5022694;28;20034;-70
2023/06/22 01:32:37;;;;;;;7.35;4.70;;;;;;;;;;5026508;28;20034;-70
2023/06/22 01:35:06;;;;;;;8.00;4.50;;;;;;;;;;5026642;28;20033;-70
2023/06/22 01:37:33;;;;;;;10.50;5.30;;;;;;;;;;5026439;28;20084;-70
2023/06/22 01:39:59;;;;;;;10.95;5.63;;;;;;;;;;5026937;28;20616;-71
2023/06/22 01:42:25;;;;;;;12.88;5.30;;;;;;;;;;5026188;28;20041;-70
2023/06/22 01:44:52;;;;;;;8.93;4.93;;;;;;;;;;5026441;28;20589;-70
2023/06/22 01:47:18;;;;;;;11.65;5.70;;;;;;;;;;5026125;28;20616;-71
2023/06/22 01:49:45;;;;;;;11.98;5.88;;;;;;;;;;5026069;28;20978;-71
2023/06/22 01:52:11;;;;;;;10.07;5.25;;;;;;;;;;5025639;28;20021;-70
2023/06/22 01:54:37;;;;;;;9.30;5.20;;;;;;;;;;5026939;28;20439;-71
2023/06/22 01:57:03;;;;;;;12.25;5.95;;;;;;;;;;5025885;28;20045;-71
2023/06/22 01:59:37;;;;;;;10.20;5.80;;;;;;;;;;5026016;28;20046;-71
2023/06/22 02:02:07;;;;;;;10.20;6.07;;;;;;;;;;5009966;28;20029;-71
2023/06/22 02:05:02;;;;;;;15.43;5.20;;;;;;;;;;5009724;28;20128;-71
2023/06/22 02:07:32;;;;;;;9.80;5.80;;;;;;;;;;5009835;28;20038;-70
2023/06/22 02:09:59;;;;;;;10.05;5.38;;;;;;;;;;5012760;28;20716;-71
2023/06/22 02:12:27;;;;;;;8.25;5.70;;;;;;;;;;5012680;28;20030;-70
2023/06/22 02:14:53;;;;;;;8.32;5.35;;;;;;;;;;5026044;28;20041;-70
2023/06/22 02:17:19;;;;;;;8.77;4.72;;;;;;;;;;5025668;28;20423;-71
2023/06/22 02:19:44;;;;;;;10.63;5.00;;;;;;;;;;5026229;28;20045;-70
2023/06/22 02:22:09;;;;;;;7.72;4.68;;;;;;;;;;5024750;28;20116;-70
2023/06/22 02:24:35;;;;;;;6.30;4.20;;;;;;;;;;5027718;28;20078;-71
2023/06/22 02:27:02;;;;;;;8.13;4.18;;;;;;;;;;5033656;28;20029;-71
2023/06/22 02:29:28;;;;;;;8.43;4.28;;;;;;;;;;5037258;28;20033;-71
2023/06/22 02:31:54;;;;;;;9.48;4.40;;;;;;;;;;5025402;28;20071;-70
2023/06/22 02:34:20;;;;;;;9.55;4.55;;;;;;;;;;5025646;28;20037;-70
2023/06/22 02:36:50;;;;;;;10.23;4.80;;;;;;;;;;5025828;28;20534;-70
2023/06/22 02:39:19;;;;;;;8.80;4.68;;;;;;;;;;5023519;28;20037;-71
2023/06/22 02:41:44;;;;;;;9.25;5.10;;;;;;;;;;5025130;28;20041;-71
2023/06/22 02:44:09;;;;;;;9.20;5.47;;;;;;;;;;5025617;28;20040;-71
2023/06/22 02:46:35;;;;;;;11.27;5.93;;;;;;;;;;5024984;28;20037;-71
2023/06/22 02:49:01;;;;;;;8.90;5.03;;;;;;;;;;5025533;28;20430;-71
2023/06/22 02:51:26;;;;;;;10.20;5.47;;;;;;;;;;5025241;28;20057;-71
2023/06/22 02:53:56;;;;;;;10.02;5.15;;;;;;;;;;5012333;28;20036;-70
2023/06/22 02:56:24;;;;;;;9.23;4.85;;;;;;;;;;5024949;28;20041;-70
2023/06/22 02:58:50;;;;;;;10.30;5.60;;;;;;;;;;5018667;28;20033;-70
2023/06/22 03:01:15;;;;;;;9.35;5.32;;;;;;;;;;5024608;28;20079;-71
2023/06/22 03:03:41;;;;;;;8.98;5.60;;;;;;;;;;5025609;28;20092;-71
2023/06/22 03:06:06;;;;;;;8.32;5.63;;;;;;;;;;5025065;28;20044;-71
2023/06/22 03:08:31;;;;;;;14.20;5.60;;;;;;;;;;5024537;28;20069;-70
2023/06/22 03:10:57;;;;;;;10.32;5.75;;;;;;;;;;5024382;28;20025;-71
2023/06/22 03:13:22;;;;;;;11.75;5.78;;;;;;;;;;5024673;28;20034;-70
2023/06/22 03:15:48;;;;;;;9.55;5.85;;;;;;;;;;5025355;28;20025;-70
2023/06/22 03:18:13;;;;;;;11.70;6.43;;;;;;;;;;5024559;28;20064;-70
2023/06/22 03:20:39;;;;;;;14.07;5.82;;;;;;;;;;5024372;28;20036;-71
2023/06/22 03:23:04;;;;;;;12.43;6.50;;;;;;;;;;5024633;28;20111;-71
2023/06/22 03:25:30;;;;;;;11.02;6.72;;;;;;;;;;5024028;28;20071;-70
2023/06/22 03:27:55;;;;;;;12.23;6.53;;;;;;;;;;5024970;28;20057;-70
2023/06/22 03:30:20;;;;;;;12.15;6.03;;;;;;;;;;5023083;28;20068;-70
2023/06/22 03:32:46;;;;;;;13.77;6.25;;;;;;;;;;5024249;28;20033;-71
2023/06/22 03:35:13;;;;;;;15.23;7.10;;;;;;;;;;5024144;28;20681;-70
2023/06/22 03:37:39;;;;;;;14.38;7.35;;;;;;;;;;5024409;28;20037;-70
2023/06/22 03:40:05;;;;;;;12.48;6.68;;;;;;;;;;5024414;28;20441;-70
2023/06/22 03:42:30;;;;;;;11.85;6.65;;;;;;;;;;5024630;28;20021;-70
2023/06/22 03:44:56;;;;;;;13.50;6.80;;;;;;;;;;5024526;28;20033;-70
2023/06/22 03:47:22;;;;;;;11.27;7.13;;;;;;;;;;5024700;28;20584;-70
2023/06/22 03:49:47;;;;;;;11.38;6.70;;;;;;;;;;5024963;28;20467;-70
2023/06/22 03:52:13;;;;;;;14.27;7.82;;;;;;;;;;5028074;28;20107;-71
2023/06/22 03:54:38;;;;;;;14.10;6.82;;;;;;;;;;5035908;28;20029;-71
2023/06/22 03:57:04;;;;;;;11.00;5.97;;;;;;;;;;5035033;28;20033;-71
2023/06/22 03:59:29;;;;;;;10.73;6.68;;;;;;;;;;5021039;28;20033;-70
2023/06/22 04:01:54;;;;;;;12.85;6.75;;;;;;;;;;5006364;28;20061;-70
2023/06/22 04:04:20;;;;;;;10.95;6.30;;;;;;;;;;5018077;28;20053;-71
2023/06/22 04:06:46;;;;;;;13.88;6.90;;;;;;;;;;5024495;28;20048;-70
2023/06/22 04:09:12;;;;;;;11.63;6.65;;;;;;;;;;5024237;28;20082;-70
2023/06/22 04:11:37;;;;;;;13.05;6.63;;;;;;;;;;5023911;28;20030;-70
2023/06/22 04:14:02;;;;;;;10.65;5.90;;;;;;;;;;5024006;28;20048;-70
2023/06/22 04:16:28;;;;;;;9.57;5.88;;;;;;;;;;5024040;28;20037;-70
2023/06/22 04:18:53;;;;;;;11.55;5.93;;;;;;;;;;5023707;28;20551;-70
2023/06/22 04:21:21;;;;;;;13.35;6.72;;;;;;;;;;5023589;28;20033;-70
2023/06/22 04:23:47;;;;;;;10.88;6.68;;;;;;;;;;5023611;28;20030;-70
2023/06/22 04:26:16;;;;;;;13.82;7.20;;;;;;;;;;5024122;28;20152;-70
2023/06/22 04:28:41;;;;;;;12.60;7.10;;;;;;;;;;5022703;28;20033;-70
2023/06/22 04:31:07;;;;;;;12.18;6.88;;;;;;;;;;5023387;28;20033;-70
2023/06/22 04:33:32;;;;;;;13.23;6.80;;;;;;;;;;5024495;28;20013;-71
2023/06/22 04:36:00;;;;;;;11.27;6.22;;;;;;;;;;5023337;28;20176;-70
2023/06/22 04:38:26;;;;;;;11.98;6.90;;;;;;;;;;5024436;28;20034;-70
2023/06/22 04:40:53;;;;;;;10.60;6.15;;;;;;;;;;5023791;28;20052;-70
2023/06/22 04:43:18;;;;;;;14.25;6.38;;;;;;;;;;5023881;28;20029;-70
2023/06/22 04:45:44;;;;;;;12.13;6.40;;;;;;;;;;5024078;28;20483;-70
2023/06/22 04:48:09;;;;;;;11.00;5.85;;;;;;;;;;5027033;28;20053;-71
2023/06/22 04:50:38;;;;;;;13.00;6.57;;;;;;;;;;5026996;28;20859;-70
2023/06/22 04:53:05;;;;;;;10.85;5.85;;;;;;;;;;5027414;28;20684;-71
2023/06/22 04:55:32;;;;;;;9.25;5.78;;;;;;;;;;5027788;28;20110;-71
2023/06/22 04:58:04;;;;;;;10.60;5.78;;;;;;;;;;5022480;28;20030;-70
2023/06/22 05:00:30;;;;;;;10.90;6.22;;;;;;;;;;5027459;28;20045;-70
2023/06/22 05:02:57;;;;;;;10.88;5.50;;;;;;;;;;5025944;28;20041;-70
2023/06/22 05:05:23;;;;;;;11.57;5.75;;;;;;;;;;5026898;28;20041;-71
2023/06/22 05:07:52;;;;;;;10.93;6.13;;;;;;;;;;5027094;28;20052;-70
2023/06/22 05:10:19;;;;;;;13.43;6.65;;;;;;;;;;5027246;28;20028;-71
2023/06/22 05:12:44;;;;;;;11.35;6.32;;;;;;;;;;5025541;28;20076;-71
2023/06/22 05:15:10;;;;;;;11.95;6.75;;;;;;;;;;5021463;28;20060;-70
2023/06/22 05:17:36;;;;;;;13.52;6.10;;;;;;;;;;5027748;28;20033;-70
2023/06/22 05:20:02;;;;;;;11.15;6.60;;;;;;;;;;5032155;28;20037;-70
2023/06/22 05:22:28;;;;;;;12.98;6.90;;;;;;;;;;5037897;28;20034;-71
2023/06/22 05:24:53;;;;;;;11.10;6.45;;;;;;;;;;5032356;28;20458;-70
2023/06/22 05:27:19;;;;;;;14.55;6.78;;;;;;;;;;5026547;28;20068;-70
2023/06/22 05:29:44;;;;;;;12.18;6.63;;;;;;;;;;5026387;28;20414;-70
2023/06/22 05:32:09;;;;;;;12.77;7.35;;;;;;;;;;5026743;28;20060;-70
2023/06/22 05:34:35;;;;;;;12.63;6.45;;;;;;;;;;5026440;28;20120;-71
2023/06/22 05:37:00;;;;;;;11.85;5.50;;;;;;;;;;5026893;28;20071;-71
2023/06/22 05:39:26;;;;;;;10.95;6.10;;;;;;;;;;5018890;28;20034;-70
2023/06/22 05:41:51;;;;;;;10.95;6.05;;;;;;;;;;5026131;28;20030;-71
2023/06/22 05:44:16;;;;;;;12.98;6.10;;;;;;;;;;5026490;28;20038;-70
2023/06/22 05:46:47;;;;;;;19.77;6.13;;;;;;;;;;5026336;28;20569;-71
2023/06/22 05:49:13;;;;;;;10.38;6.10;;;;;;;;;;5026142;28;20029;-71
2023/06/22 05:51:39;;;;;;;10.45;5.68;;;;;;;;;;5026770;28;20037;-71
2023/06/22 05:54:05;;;;;;;10.85;5.03;;;;;;;;;;5026313;28;20044;-70
2023/06/22 05:56:30;;;;;;;13.35;6.10;;;;;;;;;;5026181;28;20121;-71
2023/06/22 05:58:55;;;;;;;10.20;5.13;;;;;;;;;;5025644;28;20041;-71
2023/06/22 06:01:21;;;;;;;10.70;5.55;;;;;;;;;;5026145;28;20068;-70
2023/06/22 06:03:46;;;;;;;12.73;5.53;;;;;;;;;;5026488;28;20032;-71
2023/06/22 06:06:12;;;;;;;10.43;5.65;;;;;;;;;;5025804;28;20507;-71
2023/06/22 06:08:38;;;;;;;10.90;5.85;;;;;;;;;;5026193;28;20052;-70
2023/06/22 06:11:03;;;;;;;11.80;6.30;;;;;;;;;;5025771;28;20048;-70
2023/06/22 06:13:29;;;;;;;11.57;6.00;;;;;;;;;;5008532;28;20075;-70
2023/06/22 06:15:57;;;;;;;10.35;5.45;;;;;;;;;;5007139;28;20053;-70
2023/06/22 06:18:22;;;;;;;19.50;6.18;;;;;;;;;;5005791;28;20037;-70
2023/06/22 06:20:48;;;;;;;8.57;5.60;;;;;;;;;;5013398;28;20040;-70
2023/06/22 06:23:13;;;;;;;11.63;6.30;;;;;;;;;;5025204;28;20033;-70
2023/06/22 06:25:39;;;;;;;12.57;6.88;;;;;;;;;;5018766;28;20049;-70
2023/06/22 06:28:04;;;;;;;12.90;6.22;;;;;;;;;;5022746;28;20025;-70
2023/06/22 06:30:30;;;;;;;12.52;7.03;;;;;;;;;;5021386;28;20652;-70
2023/06/22 06:32:55;;;;;;;11.43;6.78;;;;;;;;;;5025524;28;20721;-70
2023/06/22 06:35:21;;;;;;;12.38;7.05;;;;;;;;;;5024445;28;20068;-70
2023/06/22 06:37:49;;;;;;;14.65;9.05;;;;;;;;;;5025363;28;20037;-70
2023/06/22 06:40:15;;;;;;;9.40;5.85;;;;;;;;;;5025537;28;20036;-70
2023/06/22 06:42:45;;;;;;;11.82;6.28;;;;;;;;;;5026313;28;20033;-71
2023/06/22 06:45:25;;;;;;;10.07;6.45;;;;;;;;;;5027154;28;20038;-71
2023/06/22 06:47:51;;;;;;;13.40;6.70;;;;;;;;;;5033442;28;20033;-70
2023/06/22 06:50:17;;;;;;;12.85;6.40;;;;;;;;;;5039320;28;20037;-71
2023/06/22 06:52:42;;;;;;;11.65;6.85;;;;;;;;;;5023716;28;20048;-71
2023/06/22 06:55:11;;;;;;;10.95;5.97;;;;;;;;;;5022690;28;20025;-71
2023/06/22 06:57:41;;;;;;;9.85;6.28;;;;;;;;;;5022705;28;20021;-71
2023/06/22 07:00:13;;;;;;;11.07;5.82;;;;;;;;;;5023810;28;20962;-71
2023/06/22 07:02:42;;;;;;;10.75;6.38;;;;;;;;;;5025057;28;20037;-71
2023/06/22 07:05:08;;;;;;;9.38;6.10;;;;;;;;;;5011994;28;20102;-71
2023/06/22 07:07:34;;;;;;;10.50;6.10;;;;;;;;;;5022508;28;20108;-70
2023/06/22 07:09:59;;;;;;;9.73;5.85;;;;;;;;;;5024531;28;20045;-70
2023/06/22 07:12:25;;;;;;;13.38;6.38;;;;;;;;;;5024400;28;20072;-70
2023/06/22 07:14:51;;;;;;;11.88;6.75;;;;;;;;;;5021295;28;20036;-71
2023/06/22 07:17:17;;;;;;;10.30;6.55;;;;;;;;;;5017971;28;20037;-70
2023/06/22 07:19:42;;;;;;;9.95;6.68;;;;;;;;;;5024894;28;20033;-70
2023/06/22 07:22:08;;;;;;;12.02;6.85;;;;;;;;;;5024331;28;20017;-70
2023/06/22 07:24:33;;;;;;;12.90;7.50;;;;;;;;;;5024593;28;20845;-70
2023/06/22 07:26:59;;;;;;;14.75;7.65;;;;;;;;;;5024323;28;20038;-70
2023/06/22 07:29:24;;;;;;;13.90;7.90;;;;;;;;;;5024043;28;20038;-70
2023/06/22 07:31:51;;;;;;;11.88;7.80;;;;;;;;;;5023603;28;20451;-70
2023/06/22 07:34:17;;;;;;;12.57;8.32;;;;;;;;;;5020376;28;20025;-70
2023/06/22 07:36:43;;;;;;;13.77;8.38;;;;;;;;;;5013913;28;20091;-70
2023/06/22 07:39:08;;;;;;;17.50;9.32;;;;;;;;;;5010930;28;20050;-71
2023/06/22 07:41:34;;;;;;;15.63;9.73;;;;;;;;;;5013743;28;20034;-70
2023/06/22 07:43:59;;;;;;;13.48;8.93;;;;;;;;;;5012530;28;20494;-70
2023/06/22 07:46:24;;;;;;;14.23;9.50;;;;;;;;;;5022987;28;20041;-70
2023/06/22 07:48:50;;;;;;;18.98;9.65;;;;;;;;;;5015282;28;20040;-70
2023/06/22 07:51:15;;;;;;;15.00;9.35;;;;;;;;;;5022831;28;20577;-70
2023/06/22 07:53:42;;;;;;;16.92;10.40;;;;;;;;;;5024247;28;20065;-70
2023/06/22 07:56:10;;;;;;;16.70;9.32;;;;;;;;;;5016962;28;20045;-71
2023/06/22 07:58:35;;;;;;;17.15;9.70;;;;;;;;;;5011385;28;20052;-70
2023/06/22 08:01:01;;;;;;;17.13;10.20;;;;;;;;;;5013473;28;20025;-70
2023/06/22 08:03:26;;;;;;;18.27;11.27;;;;;;;;;;5012589;28;20038;-70
2023/06/22 08:05:52;;;;;;;18.23;9.68;;;;;;;;;;5019328;28;20056;-70
2023/06/22 08:08:17;;;;;;;22.23;12.27;;;;;;;;;;5016614;28;20092;-71
2023/06/22 08:10:42;;;;;;;22.20;10.88;;;;;;;;;;5012730;28;20033;-70
2023/06/22 08:13:08;;;;;;;21.35;12.00;;;;;;;;;;5017013;28;20017;-70
2023/06/22 08:15:34;;;;;;;23.65;11.63;;;;;;;;;;5024741;28;20089;-70
2023/06/22 08:18:00;;;;;;;22.60;11.95;;;;;;;;;;5022786;28;20037;-70
2023/06/22 08:20:26;;;;;;;23.80;11.45;;;;;;;;;;5014554;28;20029;-70
2023/06/22 08:22:54;;;;;;;17.70;11.40;;;;;;;;;;5016003;28;20422;-70
2023/06/22 08:25:20;;;;;;;18.73;11.93;;;;;;;;;;5017127;28;20056;-70
2023/06/22 08:27:47;;;;;;;24.77;12.32;;;;;;;;;;5016131;28;21125;-71
2023/06/22 08:30:13;;;;;;;17.70;11.38;;;;;;;;;;5019898;28;20107;-70
2023/06/22 08:32:38;;;;;;;19.90;11.75;;;;;;;;;;5014564;28;20466;-70
2023/06/22 08:35:06;;;;;;;20.45;11.68;;;;;;;;;;5014791;28;20120;-70
2023/06/22 08:37:35;;;;;;;22.25;11.77;;;;;;;;;;5016146;28;20754;-70
2023/06/22 08:40:04;;;;;;;20.42;11.35;;;;;;;;;;5018813;28;20108;-70
2023/06/22 08:42:29;;;;;;;19.17;11.30;;;;;;;;;;5009426;28;20475;-70
2023/06/22 08:44:55;;;;;;;25.15;11.68;;;;;;;;;;5019529;28;20041;-70
2023/06/22 08:47:21;;;;;;;24.80;12.60;;;;;;;;;;5027561;28;20091;-69
2023/06/22 08:49:47;;;;;;;22.00;11.65;;;;;;;;;;5022954;28;20251;-70
2023/06/22 08:52:12;;;;;;;19.25;12.20;;;;;;;;;;5023137;28;20021;-69
2023/06/22 08:54:38;;;;;;;25.23;11.88;;;;;;;;;;5023888;28;20056;-69
2023/06/22 08:57:03;;;;;;;23.13;12.60;;;;;;;;;;5023691;28;20037;-69
2023/06/22 08:59:29;;;;;;;32.40;13.10;;;;;;;;;;5021804;28;20047;-69
2023/06/22 09:01:54;;;;;;;23.42;13.27;;;;;;;;;;5023602;28;20057;-69
2023/06/22 09:04:21;;;;;;;22.65;13.40;;;;;;;;;;5023538;28;20061;-69
2023/06/22 09:06:47;;;;;;;23.83;13.57;;;;;;;;;;5021016;28;20037;-69
2023/06/22 09:09:14;;;;;;;22.52;14.00;;;;;;;;;;5014022;28;20107;-69
2023/06/22 09:11:39;;;;;;;24.83;15.07;;;;;;;;;;5021817;28;20053;-69
2023/06/22 09:14:05;;;;;;;27.58;14.50;;;;;;;;;;5023130;28;20044;-69
2023/06/22 09:16:30;;;;;;;31.48;15.02;;;;;;;;;;5021392;28;20041;-68
2023/06/22 09:18:56;;;;;;;26.55;14.95;;;;;;;;;;5024902;28;20447;-69
2023/06/22 09:21:21;;;;;;;23.45;15.32;;;;;;;;;;5024459;28;20044;-68
2023/06/22 09:23:50;;;;;;;24.52;15.68;;;;;;;;;;5022881;28;20049;-68
2023/06/22 09:26:16;;;;;;;25.80;15.35;;;;;;;;;;5023934;28;21369;-72
2023/06/22 09:28:42;;;;;;;23.30;14.98;;;;;;;;;;5020852;28;20066;-68
2023/06/22 09:31:07;;;;;;;27.00;14.68;;;;;;;;;;5021131;28;20040;-69
2023/06/22 09:33:32;;;;;;;24.48;15.48;;;;;;;;;;5021856;28;20238;-68
2023/06/22 09:35:58;;;;;;;27.13;15.60;;;;;;;;;;5018905;28;20388;-68
2023/06/22 09:38:23;;;;;;;25.67;15.52;;;;;;;;;;5024216;28;20045;-68
2023/06/22 09:40:48;;;;;;;30.42;15.15;;;;;;;;;;5026899;28;20033;-69
2023/06/22 09:43:14;;;;;;;28.13;16.27;;;;;;;;;;5029139;28;20093;-71
2023/06/22 09:45:39;;;;;;;38.72;16.95;;;;;;;;;;5031954;28;20029;-70
2023/06/22 09:48:05;;;;;;;36.95;19.02;;;;;;;;;;5017256;28;20044;-70
2023/06/22 09:50:30;;;;;;;40.70;18.88;;;;;;;;;;5018709;28;20060;-70
2023/06/22 09:52:56;;;;;;;37.78;19.80;;;;;;;;;;5015707;28;20042;-70
2023/06/22 09:55:22;;;;;;;36.65;20.40;;;;;;;;;;5014217;28;20084;-70
2023/06/22 09:57:47;;;;;;;41.10;19.90;;;;;;;;;;5019465;28;20037;-70
2023/06/22 10:00:15;;;;;;;35.67;20.17;;;;;;;;;;5022136;28;20041;-70
2023/06/22 10:02:41;;;;;;;39.20;20.73;;;;;;;;;;5020379;28;20131;-73
2023/06/22 10:05:07;;;;;;;45.97;21.77;;;;;;;;;;5024379;28;20037;-69
2023/06/22 10:07:33;;;;;;;40.97;21.58;;;;;;;;;;5023371;28;20041;-71
2023/06/22 10:09:58;;;;;;;52.83;22.48;;;;;;;;;;5020707;28;20406;-70
2023/06/22 10:12:24;;;;;;;49.80;23.48;;;;;;;;;;5019894;28;20039;-69
2023/06/22 10:14:49;;;;;;;53.35;25.20;;;;;;;;;;5021692;28;20123;-70
2023/06/22 10:17:14;;;;;;;43.20;23.92;;;;;;;;;;5017190;28;20117;-70
2023/06/22 10:19:41;;;;;;;47.80;24.13;;;;;;;;;;5015583;28;20060;-70
2023/06/22 10:22:07;;;;;;;52.38;26.38;;;;;;;;;;5011203;28;20034;-70
2023/06/22 10:24:32;;;;;;;47.50;24.90;;;;;;;;;;5025099;28;20055;-69
2023/06/22 10:26:57;;;;;;;51.13;25.30;;;;;;;;;;5018019;28;20038;-69
2023/06/22 10:29:23;;;;;;;52.83;25.23;;;;;;;;;;5008528;28;20048;-69
2023/06/22 10:31:48;;;;;;;51.38;25.40;;;;;;;;;;5017577;28;20042;-70
2023/06/22 10:34:13;;;;;;;50.17;24.27;;;;;;;;;;5015109;28;20030;-70
2023/06/22 10:36:39;;;;;;;55.35;27.13;;;;;;;;;;5019211;28;20233;-69
2023/06/22 10:39:05;;;;;;;55.08;25.80;;;;;;;;;;5010606;28;20049;-70
2023/06/22 10:41:31;;;;;;;55.20;24.83;;;;;;;;;;5021201;28;20049;-70
2023/06/22 10:43:56;;;;;;;50.70;24.42;;;;;;;;;;5012415;28;20412;-70
2023/06/22 10:46:24;;;;;;;53.95;24.23;;;;;;;;;;5014502;28;20057;-70
2023/06/22 10:48:50;;;;;;;48.72;24.75;;;;;;;;;;5011882;28;20025;-69
2023/06/22 10:51:15;;;;;;;45.05;22.80;;;;;;;;;;5012854;28;20041;-69
2023/06/22 10:53:40;;;;;;;47.25;22.95;;;;;;;;;;5013235;28;20088;-69
2023/06/22 10:56:06;;;;;;;41.75;22.27;;;;;;;;;;5010749;28;20081;-70
2023/06/22 10:58:31;;;;;;;42.65;22.30;;;;;;;;;;5018706;28;20524;-69
2023/06/22 11:00:58;;;;;;;43.58;23.13;;;;;;;;;;5013525;28;20029;-69
2023/06/22 11:03:24;;;;;;;47.80;23.70;;;;;;;;;;5008804;28;20088;-70
2023/06/22 11:05:56;;;;;;;59.28;26.13;;;;;;;;;;5061652;27;20406;-71
2023/06/22 11:08:21;;;;;;;52.70;27.08;;;;;;;;;;5055971;28;20033;-71
2023/06/22 11:10:46;;;;;;;56.55;26.23;;;;;;;;;;5064717;28;20039;-71
2023/06/22 11:13:12;;;;;;;45.50;23.08;;;;;;;;;;5040107;28;20021;-71
2023/06/22 11:15:38;;;;;;;43.95;21.92;;;;;;;;;;5036052;28;20453;-71
2023/06/22 11:18:05;;;;;;;44.70;21.88;;;;;;;;;;5033742;28;20033;-71
2023/06/22 11:20:30;;;;;;;40.72;20.13;;;;;;;;;;5018205;28;20083;-71
2023/06/22 11:22:56;;;;;;;41.47;21.25;;;;;;;;;;5032991;28;20036;-71
2023/06/22 11:25:21;;;;;;;43.92;20.90;;;;;;;;;;5033889;28;20048;-71
2023/06/22 11:27:47;;;;;;;42.50;22.15;;;;;;;;;;5031434;28;20037;-69
2023/06/22 11:30:12;;;;;;;46.17;22.55;;;;;;;;;;5030854;28;20056;-69
2023/06/22 11:32:37;;;;;;;46.65;22.27;;;;;;;;;;5031186;28;20025;-71
2023/06/22 11:35:03;;;;;;;40.55;20.25;;;;;;;;;;5067991;28;20068;-72
2023/06/22 11:37:28;;;;;;;42.67;19.23;;;;;;;;;;5064893;28;20110;-72
2023/06/22 11:39:54;;;;;;;39.95;18.88;;;;;;;;;;5030470;28;20021;-71
2023/06/22 11:42:20;;;;;;;40.30;19.13;;;;;;;;;;5063270;28;20617;-72
2023/06/22 11:44:45;;;;;;;43.15;20.02;;;;;;;;;;5062874;28;20111;-71
2023/06/22 11:47:10;;;;;;;40.72;18.98;;;;;;;;;;5029261;28;20073;-69
2023/06/22 11:49:36;;;;;;;35.03;16.58;;;;;;;;;;5032020;28;20041;-69
2023/06/22 11:52:01;;;;;;;41.45;18.70;;;;;;;;;;5027967;28;20033;-69
2023/06/22 11:54:26;;;;;;;43.30;19.27;;;;;;;;;;5069078;28;20018;-69
2023/06/22 11:56:52;;;;;;;41.55;19.67;;;;;;;;;;5029881;28;20067;-69
2023/06/22 11:59:17;;;;;;;41.70;19.80;;;;;;;;;;5060341;28;20072;-69
2023/06/22 12:01:43;;;;;;;49.80;21.10;;;;;;;;;;5034272;28;20036;-69
2023/06/22 12:04:10;;;;;;;54.05;22.52;;;;;;;;;;5061331;28;20048;-69
2023/06/22 12:06:41;;;;;;;52.45;22.98;;;;;;;;;;5030161;28;20275;-69
2023/06/22 12:09:06;;;;;;;58.40;25.25;;;;;;;;;;5058751;28;20037;-69
2023/06/22 12:11:32;;;;;;;55.47;24.58;;;;;;;;;;5028926;28;20071;-69
2023/06/22 12:14:01;;;;;;;52.33;24.77;;;;;;;;;;5033091;28;20030;-69
2023/06/22 12:16:27;;;;;;;66.32;25.90;;;;;;;;;;5024906;28;20037;-69
2023/06/22 12:18:52;;;;;;;56.55;24.60;;;;;;;;;;5021005;28;20021;-69
2023/06/22 12:21:17;;;;;;;65.65;27.05;;;;;;;;;;5013938;28;20789;-69
2023/06/22 12:23:43;;;;;;;64.00;25.58;;;;;;;;;;5014574;28;20034;-69
2023/06/22 12:26:08;;;;;;;51.28;21.33;;;;;;;;;;5019035;28;20033;-69
2023/06/22 12:28:33;;;;;;;71.22;26.45;;;;;;;;;;5019438;28;20457;-68
2023/06/22 12:30:59;;;;;;;80.38;30.67;;;;;;;;;;5053989;28;20524;-69
2023/06/22 12:33:24;;;;;;;78.05;26.92;;;;;;;;;;5021403;28;20690;-69
2023/06/22 12:35:49;;;;;;;78.43;29.27;;;;;;;;;;5027020;28;20041;-70
2023/06/22 12:38:15;;;;;;;81.95;29.85;;;;;;;;;;5034884;28;20030;-70
2023/06/22 12:40:40;;;;;;;77.30;29.92;;;;;;;;;;5020911;28;20481;-70
2023/06/22 12:43:05;;;;;;;84.72;31.40;;;;;;;;;;5020529;28;20164;-70
2023/06/22 12:45:33;;;;;;;81.55;31.20;;;;;;;;;;5015484;28;20022;-70
2023/06/22 12:47:59;;;;;;;90.53;31.98;;;;;;;;;;5051598;28;20119;-70
2023/06/22 12:50:25;;;;;;;90.15;31.83;;;;;;;;;;5015626;28;20037;-70
2023/06/22 12:52:50;;;;;;;94.50;31.55;;;;;;;;;;5011777;28;20038;-70
2023/06/22 12:55:15;;;;;;;85.78;30.98;;;;;;;;;;5015358;28;20029;-70
2023/06/22 12:57:41;;;;;;;88.85;29.58;;;;;;;;;;5019769;28;20026;-70
2023/06/22 13:00:09;;;;;;;97.70;32.65;;;;;;;;;;5017100;28;20115;-70
2023/06/22 13:02:34;;;;;;;87.47;31.23;;;;;;;;;;5020539;28;20034;-70
2023/06/22 13:05:00;;;;;;;88.63;29.70;;;;;;;;;;5014643;28;20542;-70
2023/06/22 13:07:25;;;;;;;79.53;29.40;;;;;;;;;;5016351;28;20025;-70
2023/06/22 13:09:51;;;;;;;88.45;30.35;;;;;;;;;;5017763;28;20029;-71
2023/06/22 13:12:17;;;;;;;96.82;30.23;;;;;;;;;;5017312;28;20022;-71
2023/06/22 13:14:43;;;;;;;85.22;29.08;;;;;;;;;;5012858;28;20026;-70
2023/06/22 13:17:08;;;;;;;100.45;30.25;;;;;;;;;;5009641;28;20240;-70
2023/06/22 13:19:34;;;;;;;96.18;33.75;;;;;;;;;;5016121;28;20040;-70
2023/06/22 13:22:00;;;;;;;99.88;32.65;;;;;;;;;;5007321;28;20522;-71
2023/06/22 13:24:25;;;;;;;91.80;30.90;;;;;;;;;;5017569;28;20033;-70
2023/06/22 13:26:51;;;;;;;89.53;29.55;;;;;;;;;;5026588;28;20064;-70
2023/06/22 13:29:16;;;;;;;97.53;30.33;;;;;;;;;;5032790;28;20056;-70
2023/06/22 13:31:42;;;;;;;106.60;31.92;;;;;;;;;;5044730;28;20056;-70
2023/06/22 13:34:07;;;;;;;102.95;32.05;;;;;;;;;;5043904;28;20502;-71
2023/06/22 13:36:32;;;;;;;108.78;33.13;;;;;;;;;;5039277;28;20021;-70
2023/06/22 13:38:58;;;;;;;110.15;31.60;;;;;;;;;;5067106;28;20034;-70
2023/06/22 13:41:23;;;;;;;82.88;27.40;;;;;;;;;;5034893;28;20041;-70
2023/06/22 13:43:48;;;;;;;92.57;29.67;;;;;;;;;;5044958;28;20048;-70
2023/06/22 13:46:14;;;;;;;94.45;29.83;;;;;;;;;;5044924;28;20021;-71
2023/06/22 13:48:39;;;;;;;93.68;28.67;;;;;;;;;;5045930;28;20585;-71
2023/06/22 13:51:04;;;;;;;89.93;30.10;;;;;;;;;;5043284;28;20037;-70
2023/06/22 13:53:30;;;;;;;93.00;28.55;;;;;;;;;;5045275;28;20032;-70
2023/06/22 13:55:56;;;;;;;93.70;29.90;;;;;;;;;;5045174;28;20124;-70
2023/06/22 13:58:21;;;;;;;98.38;28.13;;;;;;;;;;5049098;28;20047;-71
2023/06/22 14:00:47;;;;;;;85.72;25.42;;;;;;;;;;5050220;28;20108;-70
2023/06/22 14:03:15;;;;;;;86.05;26.92;;;;;;;;;;5052982;28;20063;-71
2023/06/22 14:05:41;;;;;;;94.43;28.80;;;;;;;;;;5047306;28;20090;-71
2023/06/22 14:08:06;;;;;;;98.22;29.10;;;;;;;;;;5043816;28;20041;-70
2023/06/22 14:10:32;;;;;;;95.20;27.75;;;;;;;;;;5043430;28;20036;-71
2023/06/22 14:12:57;;;;;;;101.35;30.50;;;;;;;;;;5042377;28;20025;-71
2023/06/22 14:15:22;;;;;;;107.53;32.05;;;;;;;;;;5042391;28;20535;-71
2023/06/22 14:17:48;;;;;;;106.97;31.98;;;;;;;;;;5044152;28;20029;-71
2023/06/22 14:20:13;;;;;;;100.45;31.70;;;;;;;;;;5043943;28;20033;-71